createdAt,value
2023-05-21T00:00:38.140Z,10.93
2023-05-21T00:03:05.323Z,15.45
2023-05-21T00:05:34.445Z,14.60
2023-05-21T00:08:01.600Z,13.63
2023-05-21T00:10:28.399Z,10.77
2023-05-21T00:12:55.365Z,9.85
2023-05-21T00:15:22.506Z,7.80
2023-05-21T00:17:49.354Z,7.47
2023-05-21T00:20:16.438Z,9.48
2023-05-21T00:22:48.725Z,9.90
2023-05-21T00:25:15.657Z,9.02
2023-05-21T00:27:42.522Z,11.98
2023-05-21T00:30:10.935Z,9.45
2023-05-21T00:32:37.930Z,12.98
2023-05-21T00:35:05.314Z,9.57
2023-05-21T00:37:34.535Z,9.70
2023-05-21T00:40:02.764Z,10.48
2023-05-21T00:42:31.074Z,11.98
2023-05-21T00:44:58.242Z,7.82
2023-05-21T00:47:29.995Z,8.10
2023-05-21T00:49:57.238Z,8.93
2023-05-21T00:52:27.064Z,8.82
2023-05-21T00:54:54.228Z,6.95
2023-05-21T00:57:25.579Z,6.80
2023-05-21T00:59:53.499Z,7.18
2023-05-21T01:02:20.518Z,8.00
2023-05-21T01:04:47.638Z,7.45
2023-05-21T01:07:15.558Z,9.05
2023-05-21T01:09:43.320Z,9.43
2023-05-21T01:12:11.617Z,12.00
2023-05-21T01:14:41.235Z,7.15
2023-05-21T01:17:10.567Z,9.90
2023-05-21T01:19:37.942Z,7.57
2023-05-21T01:22:07.318Z,11.45
2023-05-21T01:24:35.632Z,6.40
2023-05-21T01:27:04.198Z,11.27
2023-05-21T01:29:31.246Z,5.80
2023-05-21T01:32:18.310Z,7.43
2023-05-21T01:34:56.352Z,7.28
2023-05-21T01:37:31.906Z,6.85
2023-05-21T01:40:38.451Z,9.55
2023-05-21T01:43:07.303Z,6.70
2023-05-21T01:45:38.635Z,7.32
2023-05-21T01:48:07.641Z,8.70
2023-05-21T01:50:37.897Z,6.45
2023-05-21T01:53:08.557Z,8.73
2023-05-21T01:55:36.240Z,9.93
2023-05-21T01:58:03.818Z,8.93
2023-05-21T02:00:32.749Z,6.13
2023-05-21T02:03:01.114Z,8.73
2023-05-21T02:05:29.068Z,6.40
2023-05-21T02:07:55.945Z,10.30
2023-05-21T02:10:23.561Z,6.22
2023-05-21T02:12:51.994Z,8.00
2023-05-21T02:15:19.732Z,5.78
2023-05-21T02:17:47.080Z,9.13
2023-05-21T02:20:14.976Z,6.22
2023-05-21T02:22:43.950Z,8.93
2023-05-21T02:25:13.035Z,9.85
2023-05-21T02:27:42.705Z,8.32
2023-05-21T02:30:14.487Z,9.52
2023-05-21T02:32:42.780Z,7.88
2023-05-21T02:35:13.496Z,7.05
2023-05-21T02:37:41.066Z,8.00
2023-05-21T02:40:10.060Z,6.80
2023-05-21T02:42:40.547Z,7.28
2023-05-21T02:45:11.727Z,8.07
2023-05-21T02:47:42.637Z,7.93
2023-05-21T02:50:10.053Z,9.18
2023-05-21T02:52:44.183Z,7.68
2023-05-21T02:55:13.244Z,6.63
2023-05-21T02:57:40.094Z,8.38
2023-05-21T03:00:08.921Z,6.75
2023-05-21T03:02:37.267Z,7.95
2023-05-21T03:05:06.106Z,5.95
2023-05-21T03:07:33.674Z,7.43
2023-05-21T03:10:01.912Z,7.97
2023-05-21T03:12:29.157Z,8.05
2023-05-21T03:14:56.615Z,7.30
2023-05-21T03:17:24.638Z,8.18
2023-05-21T03:19:52.127Z,8.07
2023-05-21T03:22:20.279Z,7.22
2023-05-21T03:24:47.428Z,6.65
2023-05-21T03:27:17.439Z,7.10
2023-05-21T03:29:46.044Z,6.43
2023-05-21T03:32:14.058Z,6.50
2023-05-21T03:34:42.014Z,6.20
2023-05-21T03:37:16.240Z,6.03
2023-05-21T03:39:43.153Z,7.82
2023-05-21T03:42:10.087Z,8.15
2023-05-21T03:44:46.220Z,8.10
2023-05-21T03:47:45.313Z,6.40
2023-05-21T03:50:17.663Z,7.38
2023-05-21T03:52:44.631Z,8.68
2023-05-21T03:55:12.093Z,6.50
2023-05-21T03:57:39.231Z,6.47
2023-05-21T04:00:08.548Z,6.97
2023-05-21T04:02:42.796Z,8.63
2023-05-21T04:05:12.266Z,8.52
2023-05-21T04:07:39.857Z,6.90
2023-05-21T04:10:09.580Z,6.38
2023-05-21T04:12:36.496Z,8.40
2023-05-21T04:15:05.005Z,7.18
2023-05-21T04:17:38.480Z,7.97
2023-05-21T04:20:06.366Z,7.10
2023-05-21T04:22:33.984Z,5.55
2023-05-21T04:25:00.971Z,6.90
2023-05-21T04:27:35.120Z,6.88
2023-05-21T04:30:04.259Z,10.32
2023-05-21T04:32:35.198Z,7.50
2023-05-21T04:35:02.245Z,6.95
2023-05-21T04:37:31.564Z,6.65
2023-05-21T04:39:58.709Z,7.88
2023-05-21T04:42:52.525Z,7.78
2023-05-21T04:45:24.759Z,8.00
2023-05-21T04:47:54.617Z,6.47
2023-05-21T04:50:21.958Z,5.75
2023-05-21T04:52:50.428Z,9.57
2023-05-21T04:55:19.252Z,7.85
2023-05-21T04:57:46.484Z,7.68
2023-05-21T05:00:15.053Z,8.13
2023-05-21T05:02:44.460Z,7.20
2023-05-21T05:05:12.492Z,6.68
2023-05-21T05:07:39.297Z,6.22
2023-05-21T05:10:06.726Z,7.03
2023-05-21T05:12:33.667Z,8.73
2023-05-21T05:15:01.001Z,5.50
2023-05-21T05:17:28.870Z,6.43
2023-05-21T05:19:55.672Z,6.15
2023-05-21T05:22:22.734Z,5.80
2023-05-21T05:24:49.736Z,6.78
2023-05-21T05:27:18.075Z,9.25
2023-05-21T05:29:45.535Z,7.90
2023-05-21T05:32:12.411Z,5.47
2023-05-21T05:34:46.567Z,7.20
2023-05-21T05:37:13.636Z,8.27
2023-05-21T05:39:40.637Z,8.55
2023-05-21T05:42:07.576Z,7.85
2023-05-21T05:44:34.345Z,7.85
2023-05-21T05:47:01.751Z,7.03
2023-05-21T05:49:30.571Z,7.60
2023-05-21T05:51:57.467Z,8.80
2023-05-21T05:54:24.730Z,10.75
2023-05-21T05:56:51.597Z,7.55
2023-05-21T05:59:18.600Z,8.07
2023-05-21T06:01:50.306Z,8.50
2023-05-21T06:04:17.190Z,7.90
2023-05-21T06:06:44.054Z,9.68
2023-05-21T06:09:11.181Z,8.05
2023-05-21T06:11:37.982Z,8.50
2023-05-21T06:14:07.202Z,8.73
2023-05-21T06:16:34.224Z,7.60
2023-05-21T06:19:01.283Z,7.15
2023-05-21T06:21:29.277Z,7.28
2023-05-21T06:23:55.945Z,8.25
2023-05-21T06:26:23.984Z,7.38
2023-05-21T06:28:52.550Z,7.93
2023-05-21T06:31:22.540Z,9.18
2023-05-21T06:33:50.066Z,9.18
2023-05-21T06:36:17.236Z,11.52
2023-05-21T06:38:51.152Z,7.30
2023-05-21T06:41:18.271Z,7.07
2023-05-21T06:43:52.056Z,8.43
2023-05-21T06:46:48.248Z,7.53
2023-05-21T06:49:15.353Z,6.10
2023-05-21T06:51:43.646Z,7.63
2023-05-21T06:54:12.117Z,5.82
2023-05-21T06:56:40.675Z,7.53
2023-05-21T06:59:09.547Z,6.68
2023-05-21T07:01:37.742Z,6.57
2023-05-21T07:04:05.199Z,6.40
2023-05-21T07:06:32.325Z,9.63
2023-05-21T07:08:59.187Z,8.63
2023-05-21T07:11:29.217Z,7.30
2023-05-21T07:14:00.353Z,8.75
2023-05-21T07:16:27.601Z,7.40
2023-05-21T07:18:54.632Z,5.15
2023-05-21T07:21:21.988Z,9.68
2023-05-21T07:23:50.726Z,7.57
2023-05-21T07:26:18.603Z,9.25
2023-05-21T07:28:45.651Z,7.93
2023-05-21T07:31:13.278Z,6.35
2023-05-21T07:33:45.396Z,8.45
2023-05-21T07:36:13.465Z,8.27
2023-05-21T07:38:40.745Z,6.18
2023-05-21T07:41:08.897Z,7.38
2023-05-21T07:43:37.268Z,6.68
2023-05-21T07:46:04.232Z,8.27
2023-05-21T07:48:32.530Z,7.47
2023-05-21T07:51:02.020Z,9.65
2023-05-21T07:53:32.384Z,8.85
2023-05-21T07:56:02.496Z,8.80
2023-05-21T07:58:31.280Z,8.98
2023-05-21T08:00:58.818Z,6.90
2023-05-21T08:03:28.034Z,7.72
2023-05-21T08:05:55.220Z,6.63
2023-05-21T08:08:22.338Z,6.05
2023-05-21T08:10:51.694Z,10.10
2023-05-21T08:13:19.338Z,6.00
2023-05-21T08:15:51.318Z,7.38
2023-05-21T08:18:20.752Z,8.45
2023-05-21T08:20:48.763Z,7.20
2023-05-21T08:23:18.114Z,5.97
2023-05-21T08:28:17.087Z,9.98
2023-05-21T08:30:43.979Z,8.25
2023-05-21T08:33:11.399Z,6.85
2023-05-21T08:35:39.088Z,7.00
2023-05-21T08:38:18.407Z,5.35
2023-05-21T08:41:00.203Z,7.95
2023-05-21T08:43:30.026Z,7.63
2023-05-21T08:46:01.454Z,7.55
2023-05-21T08:48:32.798Z,8.27
2023-05-21T08:51:01.352Z,8.90
2023-05-21T08:53:34.601Z,6.07
2023-05-21T08:56:10.006Z,7.05
2023-05-21T08:58:46.374Z,8.70
2023-05-21T09:01:19.620Z,8.00
2023-05-21T09:03:52.890Z,6.22
2023-05-21T09:06:20.950Z,5.45
2023-05-21T09:08:58.791Z,7.82
2023-05-21T09:11:35.752Z,4.95
2023-05-21T09:14:03.891Z,8.13
2023-05-21T09:16:51.731Z,7.20
2023-05-21T09:19:22.791Z,5.45
2023-05-21T09:21:52.805Z,7.50
2023-05-21T09:24:25.673Z,6.10
2023-05-21T09:26:53.002Z,6.78
2023-05-21T09:29:20.081Z,5.13
2023-05-21T09:31:47.641Z,6.93
2023-05-21T09:34:16.058Z,6.00
2023-05-21T09:36:46.281Z,7.65
2023-05-21T09:39:27.770Z,8.60
2023-05-21T09:41:57.209Z,6.20
2023-05-21T09:44:25.549Z,8.15
2023-05-21T09:46:58.018Z,8.02
2023-05-21T09:49:26.644Z,5.50
2023-05-21T09:51:58.412Z,6.13
2023-05-21T09:54:27.104Z,5.88
2023-05-21T09:56:53.878Z,5.40
2023-05-21T09:59:21.246Z,4.07
2023-05-21T10:01:51.704Z,4.03
2023-05-21T10:04:19.141Z,6.00
2023-05-21T10:06:47.916Z,6.65
2023-05-21T10:09:18.830Z,7.97
2023-05-21T10:11:48.203Z,5.53
2023-05-21T10:14:22.583Z,4.85
2023-05-21T10:16:54.260Z,5.60
2023-05-21T10:19:22.669Z,6.75
2023-05-21T10:21:52.774Z,6.57
2023-05-21T10:24:20.225Z,8.18
2023-05-21T10:26:48.363Z,6.85
2023-05-21T10:29:19.821Z,7.15
2023-05-21T10:31:49.987Z,5.07
2023-05-21T10:34:17.403Z,6.47
2023-05-21T10:36:45.127Z,6.00
2023-05-21T10:39:13.155Z,5.63
2023-05-21T10:41:59.262Z,6.97
2023-05-21T10:44:30.675Z,6.40
2023-05-21T10:47:14.458Z,5.07
2023-05-21T10:50:14.814Z,4.93
2023-05-21T10:53:09.924Z,8.00
2023-05-21T10:55:46.765Z,7.35
2023-05-21T10:58:32.789Z,6.05
2023-05-21T11:01:02.841Z,4.10
2023-05-21T11:03:33.093Z,6.78
2023-05-21T11:06:03.492Z,7.43
2023-05-21T11:08:39.003Z,5.85
2023-05-21T11:11:06.235Z,6.25
2023-05-21T11:13:59.471Z,8.00
2023-05-21T11:16:28.070Z,6.07
2023-05-21T11:18:55.127Z,7.32
2023-05-21T11:21:25.839Z,6.78
2023-05-21T11:23:54.291Z,7.00
2023-05-21T11:26:23.220Z,7.30
2023-05-21T11:29:05.515Z,6.60
2023-05-21T11:31:38.170Z,7.32
2023-05-21T11:34:11.713Z,5.38
2023-05-21T11:36:39.775Z,7.13
2023-05-21T11:39:15.842Z,5.55
2023-05-21T11:42:01.562Z,7.05
2023-05-21T11:44:47.263Z,5.47
2023-05-21T11:47:15.861Z,6.68
2023-05-21T11:49:42.967Z,6.45
2023-05-21T11:52:11.828Z,5.25
2023-05-21T11:54:51.964Z,8.90
2023-05-21T11:57:19.617Z,7.00
2023-05-21T11:59:47.283Z,4.95
2023-05-21T12:02:18.907Z,6.13
2023-05-21T12:04:48.618Z,10.95
2023-05-21T12:07:19.085Z,6.57
2023-05-21T12:09:50.098Z,6.93
2023-05-21T12:12:21.620Z,7.18
2023-05-21T12:14:51.254Z,6.95
2023-05-21T12:17:26.378Z,7.30
2023-05-21T12:19:54.606Z,8.40
2023-05-21T12:22:21.744Z,6.78
2023-05-21T12:24:48.960Z,7.25
2023-05-21T12:27:17.041Z,5.75
2023-05-21T12:29:49.286Z,6.60
2023-05-21T12:32:16.481Z,7.38
2023-05-21T12:34:54.905Z,5.07
2023-05-21T12:37:23.121Z,4.53
2023-05-21T12:39:51.934Z,5.45
2023-05-21T12:42:36.018Z,5.30
2023-05-21T12:45:09.951Z,5.85
2023-05-21T12:47:37.254Z,5.07
2023-05-21T12:50:08.378Z,7.15
2023-05-21T12:52:35.095Z,8.50
2023-05-21T12:55:01.984Z,5.55
2023-05-21T12:57:39.327Z,4.95
2023-05-21T13:00:08.201Z,5.90
2023-05-21T13:02:39.837Z,5.78
2023-05-21T13:05:11.636Z,4.80
2023-05-21T13:07:39.824Z,6.75
2023-05-21T13:10:07.883Z,4.78
2023-05-21T13:12:35.215Z,7.88
2023-05-21T13:15:05.003Z,6.68
2023-05-21T13:17:32.162Z,8.05
2023-05-21T13:20:15.053Z,5.78
2023-05-21T13:22:47.333Z,6.32
2023-05-21T13:25:16.391Z,10.10
2023-05-21T13:27:44.158Z,6.38
2023-05-21T13:30:13.831Z,4.63
2023-05-21T13:32:42.406Z,5.55
2023-05-21T13:35:10.300Z,5.85
2023-05-21T13:37:37.586Z,6.30
2023-05-21T13:40:06.832Z,6.57
2023-05-21T13:42:34.641Z,6.25
2023-05-21T13:45:01.680Z,5.55
2023-05-21T13:47:28.624Z,6.18
2023-05-21T13:49:55.687Z,5.80
2023-05-21T13:52:22.947Z,6.68
2023-05-21T13:54:49.869Z,5.05
2023-05-21T13:57:16.786Z,7.55
2023-05-21T13:59:43.943Z,5.22
2023-05-21T14:02:11.070Z,5.60
2023-05-21T14:04:39.499Z,5.45
2023-05-21T14:07:07.096Z,5.57
2023-05-21T14:09:34.437Z,6.03
2023-05-21T14:12:01.659Z,7.32
2023-05-21T14:14:28.432Z,6.07
2023-05-21T14:16:55.355Z,6.78
2023-05-21T14:19:22.343Z,7.25
2023-05-21T14:21:51.949Z,7.97
2023-05-21T14:24:19.304Z,7.68
2023-05-21T14:26:46.189Z,5.85
2023-05-21T14:29:13.077Z,7.30
2023-05-21T14:31:40.054Z,5.90
2023-05-21T14:34:08.840Z,5.75
2023-05-21T14:36:36.925Z,4.15
2023-05-21T14:39:04.057Z,5.68
2023-05-21T14:41:31.109Z,4.22
2023-05-21T14:43:58.019Z,5.70
2023-05-21T14:46:26.193Z,4.63
2023-05-21T14:48:53.321Z,6.60
2023-05-21T14:51:20.521Z,9.70
2023-05-21T14:53:47.336Z,6.25
2023-05-21T14:56:14.211Z,8.15
2023-05-21T14:58:41.058Z,5.35
2023-05-21T15:01:08.199Z,5.72
2023-05-21T15:03:36.320Z,4.60
2023-05-21T15:06:03.366Z,5.65
2023-05-21T15:08:30.502Z,5.32
2023-05-21T15:10:57.686Z,10.90
2023-05-21T15:13:24.513Z,5.38
2023-05-21T15:15:51.715Z,9.88
2023-05-21T15:18:18.979Z,6.65
2023-05-21T15:20:45.889Z,5.40
2023-05-21T15:23:17.232Z,4.05
2023-05-21T15:25:45.258Z,10.68
2023-05-21T15:28:12.661Z,5.35
2023-05-21T15:30:40.049Z,8.32
2023-05-21T15:33:07.068Z,9.00
2023-05-21T15:35:35.737Z,7.93
2023-05-21T15:38:03.095Z,7.82
2023-05-21T15:40:29.996Z,6.50
2023-05-21T15:42:57.061Z,6.45
2023-05-21T15:45:24.935Z,6.63
2023-05-21T15:47:51.866Z,7.30
2023-05-21T15:50:19.873Z,7.03
2023-05-21T15:52:46.998Z,6.60
2023-05-21T15:55:14.398Z,7.30
2023-05-21T15:57:41.254Z,8.38
2023-05-21T16:00:10.506Z,5.75
2023-05-21T16:02:37.942Z,7.57
2023-05-21T16:05:05.009Z,10.55
2023-05-21T16:07:31.882Z,5.20
2023-05-21T16:09:58.765Z,5.07
2023-05-21T16:12:26.438Z,6.25
2023-05-21T16:14:53.188Z,6.63
2023-05-21T16:17:20.996Z,5.25
2023-05-21T16:19:48.082Z,7.38
2023-05-21T16:22:15.116Z,5.20
2023-05-21T16:24:41.952Z,8.65
2023-05-21T16:27:08.841Z,11.38
2023-05-21T16:29:35.944Z,10.98
2023-05-21T16:32:03.928Z,11.60
2023-05-21T16:34:31.164Z,7.38
2023-05-21T16:36:58.933Z,10.75
2023-05-21T16:39:25.862Z,10.70
2023-05-21T16:41:54.705Z,9.80
2023-05-21T16:44:21.561Z,10.95
2023-05-21T16:46:48.927Z,9.13
2023-05-21T16:49:15.812Z,7.70
2023-05-21T16:51:42.635Z,8.75
2023-05-21T16:54:09.885Z,9.05
2023-05-21T16:56:36.932Z,12.18
2023-05-21T16:59:03.848Z,8.68
2023-05-21T17:01:30.795Z,9.70
2023-05-21T17:03:57.964Z,10.20
2023-05-21T17:06:25.017Z,12.18
2023-05-21T17:08:51.869Z,9.00
2023-05-21T17:11:19.983Z,11.35
2023-05-21T17:13:48.312Z,7.78
2023-05-21T17:16:15.582Z,10.35
2023-05-21T17:18:42.525Z,8.35
2023-05-21T17:21:10.637Z,9.10
2023-05-21T17:23:39.837Z,8.55
2023-05-21T17:26:08.820Z,10.45
2023-05-21T17:28:36.766Z,9.10
2023-05-21T17:31:03.665Z,12.00
2023-05-21T17:33:30.929Z,9.52
2023-05-21T17:35:59.015Z,9.82
2023-05-21T17:38:25.822Z,11.25
2023-05-21T17:40:53.012Z,8.77
2023-05-21T17:43:19.802Z,9.98
2023-05-21T17:45:46.706Z,9.70
2023-05-21T17:48:13.553Z,12.57
2023-05-21T17:50:41.082Z,12.43
2023-05-21T17:53:07.856Z,19.50
2023-05-21T17:55:34.854Z,11.80
2023-05-21T17:58:02.097Z,14.85
2023-05-21T18:00:29.060Z,15.48
2023-05-21T18:02:56.266Z,14.80
2023-05-21T18:05:24.458Z,13.57
2023-05-21T18:07:51.336Z,10.73
2023-05-21T18:10:21.613Z,13.90
2023-05-21T18:12:48.692Z,11.68
2023-05-21T18:15:16.104Z,8.82
2023-05-21T18:17:43.076Z,10.48
2023-05-21T18:20:11.975Z,12.60
2023-05-21T18:22:38.790Z,17.35
2023-05-21T18:25:06.176Z,10.88
2023-05-21T18:27:33.017Z,11.32
2023-05-21T18:30:02.584Z,12.32
2023-05-21T18:32:31.181Z,13.70
2023-05-21T18:34:58.719Z,12.25
2023-05-21T18:37:27.323Z,15.05
2023-05-21T18:39:54.469Z,11.23
2023-05-21T18:42:21.238Z,11.18
2023-05-21T18:44:51.084Z,8.50
2023-05-21T18:47:17.910Z,13.82
2023-05-21T18:49:44.804Z,7.38
2023-05-21T18:52:11.633Z,12.00
2023-05-21T18:54:38.617Z,17.42
2023-05-21T18:57:05.525Z,11.63
2023-05-21T18:59:33.655Z,8.10
2023-05-21T19:02:00.598Z,12.55
2023-05-21T19:04:27.731Z,13.02
2023-05-21T19:06:55.380Z,8.65
2023-05-21T19:09:22.141Z,7.38
2023-05-21T19:11:49.587Z,9.18
2023-05-21T19:14:16.420Z,21.50
2023-05-21T19:16:43.401Z,12.85
2023-05-21T19:19:10.624Z,10.55
2023-05-21T19:21:37.688Z,10.30
2023-05-21T19:24:06.002Z,9.55
2023-05-21T19:26:33.179Z,12.95
2023-05-21T19:28:59.967Z,14.93
2023-05-21T19:31:26.856Z,10.70
2023-05-21T19:33:53.889Z,11.98
2023-05-21T19:36:21.359Z,12.43
2023-05-21T19:38:49.400Z,11.90
2023-05-21T19:41:16.946Z,14.10
2023-05-21T19:43:44.843Z,11.82
2023-05-21T19:46:13.695Z,10.20
2023-05-21T19:48:41.608Z,10.45
2023-05-21T19:51:08.465Z,10.18
2023-05-21T19:53:35.720Z,8.25
2023-05-21T19:56:03.603Z,12.63
2023-05-21T19:58:30.953Z,10.40
2023-05-21T20:01:00.539Z,12.98
2023-05-21T20:03:28.471Z,11.85
2023-05-21T20:05:55.204Z,16.48
2023-05-21T20:08:22.715Z,15.90
2023-05-21T20:10:51.916Z,9.45
2023-05-21T20:13:19.649Z,10.43
2023-05-21T20:15:48.067Z,13.15
2023-05-21T20:18:15.627Z,13.00
2023-05-21T20:20:43.172Z,12.30
2023-05-21T20:23:11.106Z,10.80
2023-05-21T20:25:38.268Z,10.80
2023-05-21T20:28:05.769Z,8.82
2023-05-21T20:30:34.348Z,13.02
2023-05-21T20:33:02.851Z,11.32
2023-05-21T20:35:30.282Z,10.55
2023-05-21T20:37:57.421Z,10.05
2023-05-21T20:40:24.799Z,11.43
2023-05-21T20:42:53.631Z,14.85
2023-05-21T20:45:22.565Z,9.75
2023-05-21T20:47:50.257Z,11.05
2023-05-21T20:50:22.167Z,9.13
2023-05-21T20:52:49.026Z,12.10
2023-05-21T20:55:15.952Z,14.48
2023-05-21T20:57:43.012Z,9.70
2023-05-21T21:00:13.228Z,12.13
2023-05-21T21:02:40.228Z,10.93
2023-05-21T21:05:10.773Z,11.73
2023-05-21T21:07:41.815Z,15.75
2023-05-21T21:10:09.244Z,14.60
2023-05-21T21:12:36.287Z,13.55
2023-05-21T21:15:03.572Z,10.80
2023-05-21T21:17:30.356Z,13.43
2023-05-21T21:19:58.240Z,13.52
2023-05-21T21:22:25.075Z,21.02
2023-05-21T21:24:51.738Z,12.23
2023-05-21T21:27:18.571Z,19.40
2023-05-21T21:29:45.903Z,14.10
2023-05-21T21:32:12.821Z,17.13
2023-05-21T21:34:39.636Z,14.25
2023-05-21T21:37:06.592Z,14.55
2023-05-21T21:39:33.266Z,13.52
2023-05-21T21:42:00.664Z,15.10
2023-05-21T21:44:29.546Z,11.85
2023-05-21T21:46:56.367Z,15.63
2023-05-21T21:49:23.296Z,11.98
2023-05-21T21:51:51.358Z,12.68
2023-05-21T21:54:18.316Z,11.77
2023-05-21T21:56:45.024Z,12.18
2023-05-21T21:59:11.872Z,14.45
2023-05-21T22:01:38.791Z,8.23
2023-05-21T22:04:05.689Z,12.85
2023-05-21T22:06:33.231Z,15.43
2023-05-21T22:09:00.241Z,11.35
2023-05-21T22:11:28.513Z,12.27
2023-05-21T22:13:55.315Z,11.23
2023-05-21T22:16:24.934Z,11.82
2023-05-21T22:18:54.400Z,11.38
2023-05-21T22:21:21.864Z,11.20
2023-05-21T22:23:48.769Z,10.32
2023-05-21T22:26:15.760Z,15.75
2023-05-21T22:28:43.063Z,13.68
2023-05-21T22:31:10.414Z,17.33
2023-05-21T22:33:37.362Z,15.02
2023-05-21T22:36:04.324Z,13.32
2023-05-21T22:38:31.150Z,14.80
2023-05-21T22:40:58.023Z,14.05
2023-05-21T22:43:26.840Z,15.30
2023-05-21T22:45:53.885Z,13.82
2023-05-21T22:48:22.454Z,12.20
2023-05-21T22:50:50.430Z,14.27
2023-05-21T22:53:17.813Z,14.13
2023-05-21T22:55:44.680Z,21.42
2023-05-21T22:58:11.572Z,14.23
2023-05-21T23:00:38.671Z,15.68
2023-05-21T23:03:05.952Z,18.73
2023-05-21T23:05:32.736Z,14.98
2023-05-21T23:07:59.537Z,13.60
2023-05-21T23:10:26.400Z,13.40
2023-05-21T23:12:53.689Z,15.38
2023-05-21T23:15:21.701Z,17.40
2023-05-21T23:17:48.743Z,13.35
2023-05-21T23:20:15.580Z,13.93
2023-05-21T23:22:42.651Z,15.32
2023-05-21T23:25:09.878Z,20.10
2023-05-21T23:27:36.603Z,18.73
2023-05-21T23:30:03.487Z,18.15
2023-05-21T23:32:32.364Z,19.23
2023-05-21T23:34:59.245Z,23.58
2023-05-21T23:37:26.366Z,19.70
2023-05-21T23:39:56.012Z,17.83
2023-05-21T23:42:22.903Z,19.60
2023-05-21T23:44:49.730Z,20.58
2023-05-21T23:47:16.511Z,23.40
2023-05-21T23:49:43.291Z,16.40
2023-05-21T23:52:10.323Z,19.42
2023-05-21T23:54:37.164Z,19.38
2023-05-21T23:57:04.866Z,19.50
2023-05-21T23:59:31.663Z,16.33
